This is the latest recevied weather packets stored in our database for station/object M0SDM. If no packets are shown the sender has not sent any weather packets the latest 10 day(s).
| Time | Temp. | Humidity | Pressure | Rain* | Wind** | Luminosity | Snow |
|---|---|---|---|---|---|---|---|
| 1777835421 | 11.67° C | 96% | 1009 hPa | 0 mm | - | - | - |
| 1777834521 | 11.67° C | 96% | 1008.8 hPa | 0 mm | - | - | - |
| 1777833621 | 11.67° C | 96% | 1008.4 hPa | 0 mm | - | - | - |
| 1777832721 | 11.67° C | 96% | 1008.3 hPa | 0 mm | - | - | - |
| 1777831821 | 12.22° C | 96% | 1008.2 hPa | 0 mm | - | - | - |
| 1777830921 | 12.22° C | 96% | 1007.8 hPa | 0 mm | - | - | - |
| 1777830021 | 12.22° C | 95% | 1007.7 hPa | 0 mm | - | - | - |
| 1777829121 | 12.78° C | 94% | 1007.6 hPa | 0 mm | - | - | - |
| 1777828221 | 13.33° C | 93% | 1007.4 hPa | 0 mm | - | - | - |
| 1777827321 | 13.89° C | 92% | 1007 hPa | 0 mm | - | - | - |
| 1777826421 | 13.89° C | 90% | 1007 hPa | 0 mm | - | - | - |
| 1777825521 | 13.89° C | 89% | 1007.1 hPa | 0 mm | - | - | - |
| 1777824621 | 14.44° C | 88% | 1006.7 hPa | 0 mm | - | - | - |
| 1777823721 | 15° C | 87% | 1006.5 hPa | 0 mm | - | - | - |
| 1777822821 | 15° C | 87% | 1006.5 hPa | 0 mm | - | - | - |
| 1777821921 | 14.44° C | 87% | 1006.6 hPa | 0 mm | - | - | - |
| 1777821021 | 14.44° C | 88% | 1006.6 hPa | 0 mm | - | - | - |
| 1777820121 | 14.44° C | 89% | 1006.7 hPa | 0 mm | - | - | - |
| 1777819221 | 13.89° C | 90% | 1006.7 hPa | 0 mm | - | - | - |
| 1777818321 | 13.89° C | 90% | 1007.1 hPa | 0 mm | - | - | - |
| 1777817421 | 13.89° C | 90% | 1007 hPa | 0 mm | - | - | - |
| 1777816521 | 13.89° C | 91% | 1007.2 hPa | 0 mm | - | - | - |
| 1777815621 | 13.89° C | 93% | 1006.9 hPa | 0 mm | - | - | - |
| 1777814721 | 13.33° C | 93% | 1006.9 hPa | 0 mm | - | - | - |
| 1777813821 | 12.78° C | 96% | 1007.1 hPa | 0 mm | - | - | - |
* Rain latest hour (hover to see other rain measurements)
** Current wind speed in m/s (hover to see current wind gust speed)